Latest Weather Observations for Deniliquin

IDN60801

Issued at 3:23 pm EDT Thursday 28 January 2021 (issued every 10 minutes, with the page automatically refreshed every 10 minutes)

About weather observations | Map of weather stations | Latest weather observations for NSW | Other Formats
Station Details ID: 074258 Name: DENILIQUIN AIRPORT AWS Lat: -35.56 Lon: 144.95 Height: 94.0 m
Data from the previous 72 hours. | See also: Recent months at Deniliquin
Date/Time
EDT
Temp
°C
App
Temp
°C
Dew
Point
°C
Rel
Hum
%
Delta-T
°C
Wind Press
QNH
hPa
Press
MSL
hPa
Rain since
9am
mm
Dir  Spd
km/h
Gust
km/h
Spd
kts
Gust
kts
28/03:00pm 20.3 17.4 17.1 82 2.0 E 28 39 15 21 1014.5 1014.1 0.0
28/02:30pm 20.7 17.1 17.1 80 2.2 E 32 39 17 21 1014.5 1014.1 0.0
28/02:00pm 20.5 18.3 16.9 80 2.2 ESE 24 32 13 17 1015.1 1014.7 0.0
28/01:30pm 20.8 17.7 16.6 77 2.6 E 28 33 15 18 1015.0 1014.6 0.0
28/01:00pm 21.9 17.8 16.0 69 3.6 ENE 32 43 17 23 1014.8 1014.4 0.0
28/12:30pm 22.5 18.3 15.6 65 4.2 ENE 32 43 17 23 1014.6 1014.2 0.0
28/12:00pm 24.1 19.6 14.8 56 5.6 ENE 32 41 17 22 1014.3 1013.9 0.0
28/11:30am 24.5 19.4 13.1 49 6.6 E 32 43 17 23 1014.3 1013.9 0.0
28/11:00am 24.4 19.5 12.7 48 6.8 ENE 30 43 16 23 1014.1 1013.7 0.0
28/10:30am 24.6 18.7 12.5 46 7.0 ENE 35 48 19 26 1014.0 1013.6 0.0
28/10:00am 24.2 19.7 12.5 48 6.7 ENE 28 35 15 19 1014.4 1014.0 0.0
28/09:30am 23.7 18.2 12.4 49 6.5 E 33 46 18 25 1014.4 1014.0 0.0
28/09:00am 23.6 16.9 12.3 49 6.5 E 39 50 21 27 1013.7 1013.3 0.0
28/08:30am 22.8 16.5 12.4 52 5.9 E 37 50 20 27 1013.4 1013.0 0.0
28/08:00am 22.4 17.1 12.6 54 5.6 E 32 46 17 25 1013.6 1013.2 0.0
28/07:30am 21.9 18.2 12.7 56 5.3 E 24 35 13 19 1013.3 1012.9 0.0
28/07:00am 21.4 17.3 12.8 58 4.9 E 26 32 14 17 1013.1 1012.7 0.0
28/06:30am 21.4 16.9 12.5 57 5.1 ENE 28 39 15 21 1012.9 1012.5 0.0
28/06:00am 21.4 16.8 12.3 56 5.2 ENE 28 35 15 19 1012.6 1012.2 0.0
28/05:30am 21.5 16.8 12.1 55 5.3 E 28 35 15 19 1012.3 1011.9 0.0
28/05:00am 21.7 17.7 11.7 53 5.6 E 24 32 13 17 1012.4 1012.0 0.0
28/04:30am 21.8 17.0 11.5 52 5.8 E 28 39 15 21 1012.0 1011.6 0.0
28/04:00am 21.7 18.1 11.7 53 5.6 E 22 30 12 16 1012.0 1011.6 0.0
28/03:30am 21.5 17.9 11.8 54 5.4 E 22 32 12 17 1011.9 1011.5 0.0
28/03:00am 21.5 18.5 11.8 54 5.4 E 19 24 10 13 1012.0 1011.6 0.0
28/02:30am 22.1 17.8 12.1 53 5.7 ENE 26 35 14 19 1012.0 1011.6 0.0
28/02:00am 22.4 17.4 12.1 52 5.8 ENE 30 41 16 22 1011.8 1011.4 0.0
28/01:30am 22.8 18.1 12.1 51 6.1 ENE 28 37 15 20 1012.0 1011.6 0.0
28/01:00am 22.8 20.2 13.3 55 5.5 ENE 19 30 10 16 1012.0 1011.6 0.0
28/12:30am 21.9 19.8 11.0 50 6.0 SE 13 17 7 9 1011.7 1011.2 0.0
28/12:00am 22.4 20.6 10.9 48 6.4 SE 11 15 6 8 1011.3 1010.8 0.0
 
Date/Time
EDT
Temp
°C
App
Temp
°C
Dew
Point
°C
Rel
Hum
%
Delta-T
°C
Wind Press
QNH
hPa
Press
MSL
hPa
Rain since
9am
mm
Dir  Spd
km/h
Gust
km/h
Spd
kts
Gust
kts
27/11:30pm 23.0 20.3 10.4 45 7.0 ESE 15 19 8 10 1011.6 1011.1 0.0
27/11:00pm 23.7 21.4 10.4 43 7.4 S 13 17 7 9 1011.2 1010.7 0.0
27/10:30pm 23.6 21.3 10.6 44 7.2 S 13 17 7 9 1010.9 1010.4 0.0
27/10:00pm 23.8 22.6 11.5 46 7.0 S 9 11 5 6 1010.9 1010.4 0.0
27/09:30pm 24.8 23.5 9.1 37 8.5 S 6 7 3 4 1010.5 1010.0 0.0
27/09:00pm 25.6 23.7 9.0 35 9.1 S 9 11 5 6 1010.1 1009.6 0.0
27/08:30pm 27.3 25.5 7.2 28 10.7 S 6 9 3 5 1009.7 1009.2 0.0
27/08:00pm 29.0 26.5 3.8 20 12.8 SE 6 6 3 3 1009.3 1008.8 0.0
27/07:30pm 29.7 26.3 2.1 17 13.7 ESE 9 13 5 7 1009.1 1008.6 0.0
27/07:00pm 30.3 26.6 2.5 17 14.0 ESE 11 15 6 8 1009.1 1008.6 0.0
27/06:30pm 29.8 26.3 3.7 19 13.3 SE 11 17 6 9 1008.6 1008.1 0.0
27/06:00pm 30.4 26.7 4.2 19 13.6 SSE 13 19 7 10 1008.6 1008.1 0.0
27/05:30pm 31.0 27.3 4.7 19 13.7 S 13 20 7 11 1008.9 1008.4 0.0
27/05:00pm 30.1 26.9 3.2 18 13.7 SE 9 19 5 10 1009.1 1008.6 0.0
27/04:30pm 29.4 26.3 3.4 19 13.2 E 9 19 5 10 1009.7 1009.2 0.0
27/04:00pm 29.7 26.0 4.4 20 13.1 SSE 13 26 7 14 1009.9 1009.4 0.0
27/03:30pm 29.3 25.8 5.4 22 12.5 S 13 22 7 12 1010.0 1009.5 0.0
27/03:00pm 28.3 25.4 6.4 25 11.6 SE 11 22 6 12 1010.4 1009.9 0.0
27/02:30pm 27.7 24.7 7.5 28 10.9 S 13 19 7 10 1010.8 1010.3 0.0
27/02:00pm 26.6 24.3 9.0 33 9.7 S 11 20 6 11 1010.7 1010.2 0.0
27/01:30pm 25.4 23.3 8.4 34 9.2 SSE 9 22 5 12 1011.3 1010.8 0.0
27/01:00pm 25.1 22.0 10.2 39 8.3 S 17 28 9 15 1011.5 1011.0 0.0
27/12:30pm 24.3 21.9 10.2 41 7.8 S 13 24 7 13 1011.7 1011.2 0.0
27/12:00pm 22.4 20.5 9.2 43 7.1 SSE 9 15 5 8 1011.8 1011.4 0.0
27/11:30am 22.4 20.5 8.9 42 7.2 S 9 15 5 8 1012.0 1011.6 0.0
27/11:00am 21.0 18.3 8.9 46 6.4 SSW 13 22 7 12 1012.1 1011.7 0.0
27/10:30am 19.9 16.7 8.3 47 6.1 S 15 20 8 11 1011.7 1011.2 0.0
27/10:00am 18.2 15.2 7.6 50 5.4 SSE 13 19 7 10 1011.8 1011.4 0.0
27/09:30am 16.9 12.5 7.3 53 4.8 S 20 26 11 14 1011.3 1010.8 0.0
27/09:00am 15.8 10.9 6.8 55 4.4 S 22 28 12 15 1011.4 1010.9 3.8
27/08:30am 14.7 9.7 6.3 57 4.1 S 22 30 12 16 1011.1 1010.6 3.8
27/08:00am 13.9 8.9 6.5 61 3.6 S 22 30 12 16 1010.9 1010.4 3.8
27/07:30am 13.0 8.0 6.4 64 3.2 SSW 22 28 12 15 1010.7 1010.2 3.8
27/07:00am 12.3 8.8 7.0 70 2.6 SSW 15 20 8 11 1010.5 1010.0 3.8
27/06:30am 12.1 7.8 7.0 71 2.5 SSW 19 24 10 13 1010.0 1009.5 3.8
27/06:00am 12.3 8.0 7.2 71 2.5 SSW 19 24 10 13 1009.8 1009.3 3.8
27/05:30am 12.7 8.5 7.6 71 2.5 SSW 19 22 10 12 1009.1 1008.6 3.8
27/05:00am 13.1 9.4 8.0 71 2.5 SSW 17 20 9 11 1009.1 1008.6 3.8
27/04:30am 13.5 9.3 8.1 70 2.7 S 20 26 11 14 1009.0 1008.5 3.8
27/04:00am 13.9 9.4 8.7 71 2.6 SSW 22 32 12 17 1008.9 1008.4 3.8
27/03:30am 14.3 10.6 9.3 72 2.6 SSW 19 22 10 12 1008.8 1008.3 3.8
27/03:00am 14.7 11.0 10.1 74 2.4 SSW 20 26 11 14 1008.7 1008.2 3.8
27/02:30am 15.2 11.8 10.4 73 2.5 S 19 24 10 13 1008.5 1008.0 3.8
27/02:00am 15.6 12.3 10.8 73 2.6 S 19 26 10 14 1008.4 1007.9 3.8
27/01:30am 16.0 12.0 10.3 69 3.0 S 22 35 12 19 1008.3 1007.8 3.8
27/01:00am 16.3 12.5 9.9 66 3.4 S 20 30 11 16 1008.2 1007.7 3.8
27/12:30am 16.9 12.7 9.6 62 3.8 SSW 22 30 12 16 1008.0 1007.5 3.8
27/12:00am 17.4 13.2 9.8 61 4.0 S 22 30 12 16 1007.9 1007.4 3.8
 
Date/Time
EDT
Temp
°C
App
Temp
°C
Dew
Point
°C
Rel
Hum
%
Delta-T
°C
Wind Press
QNH
hPa
Press
MSL
hPa
Rain since
9am
mm
Dir  Spd
km/h
Gust
km/h
Spd
kts
Gust
kts
26/11:30pm 18.0 13.3 10.6 62 4.0 S 26 35 14 19 1007.7 1007.2 3.8
26/11:00pm 18.6 14.3 10.9 61 4.2 S 24 37 13 20 1007.6 1007.1 3.8
26/10:30pm 19.4 16.1 11.7 61 4.3 S 20 32 11 17 1007.3 1006.8 3.8
26/10:00pm 20.3 16.5 12.5 61 4.4 S 24 32 13 17 1007.0 1006.5 3.8
26/09:30pm 20.9 17.6 12.8 60 4.6 S 22 28 12 15 1006.6 1006.1 3.8
26/09:00pm 21.9 17.9 13.0 57 5.1 SSW 26 35 14 19 1005.9 1005.4 3.8
26/08:30pm 23.2 19.0 13.4 54 5.7 S 28 35 15 19 1005.2 1004.7 3.8
26/08:00pm 24.7 20.7 14.2 52 6.3 S 28 35 15 19 1004.5 1004.0 3.8
26/07:30pm 25.8 22.2 14.3 49 6.9 S 26 33 14 18 1003.9 1003.5 3.8
26/07:00pm 26.8 22.5 14.5 46 7.4 SSW 30 37 16 20 1003.3 1002.9 3.8
26/06:30pm 27.3 24.1 15.3 48 7.3 SSW 26 32 14 17 1002.8 1002.4 3.8
26/06:00pm 29.4 27.2 15.9 44 8.4 S 22 30 12 16 1002.4 1001.9 3.8
26/05:30pm 29.8 26.8 14.7 39 9.2 SW 24 33 13 18 1002.2 1001.7 3.8
26/05:00pm 29.1 26.9 14.5 41 8.9 SW 19 30 10 16 1002.3 1001.8 3.8
26/04:30pm 28.3 26.3 15.6 46 7.8 SSW 20 28 11 15 1002.2 1001.7 3.8
26/04:00pm 29.1 26.3 16.3 46 8.0 SW 26 37 14 20 1002.2 1001.7 3.8
26/03:30pm 29.2 28.3 18.3 51 7.0 S 20 30 11 16 1002.1 1001.6 3.8
26/03:00pm 29.2 28.0 17.4 49 7.5 SW 20 28 11 15 1001.9 1001.4 3.8
26/02:30pm 27.4 26.2 17.6 55 6.2 SW 20 28 11 15 1001.8 1001.3 3.8
26/02:00pm 28.1 27.2 18.2 55 6.4 WSW 20 28 11 15 1001.6 1001.1 3.8
26/01:30pm 27.3 27.0 19.1 61 5.3 WSW 19 32 10 17 1001.7 1001.2 3.8
26/01:00pm 26.1 24.4 18.2 61 5.0 WSW 24 32 13 17 1002.1 1001.6 3.8
26/12:30pm 24.9 24.6 20.4 76 2.9 WSW 22 28 12 15 1002.3 1001.8 3.8
26/12:00pm 23.7 24.0 20.8 84 1.9 WSW 20 24 11 13 1002.1 1001.6 3.8
26/11:30am 22.5 23.0 21.1 92 0.9 WSW 20 26 11 14 1002.0 1001.5 3.8
26/11:00am 22.1 23.1 22.1 100 0.0 WSW 20 28 11 15 1001.6 1001.1 3.8
26/10:30am 21.6 - - - - WSW 22 30 12 16 1001.4 1000.9 3.8
26/10:00am 21.4 - - - - W 17 24 9 13 1001.4 1000.9 3.6
26/09:30am 21.1 - - - - WNW 13 19 7 10 1001.1 1000.6 2.4
26/09:00am 21.0 - - - - WNW 17 28 9 15 1001.0 1000.5 16.8
26/08:30am 22.6 - - - - NW 17 24 9 13 1000.7 1000.2 9.8
26/08:00am 23.1 - - - - NNW 20 24 11 13 1000.2 999.7 4.0
26/07:30am 22.8 - - - - NNW 19 24 10 13 1000.2 999.7 4.0
26/07:00am 22.7 - - - - NNW 19 24 10 13 1000.0 999.5 4.0
26/06:30am 22.4 - - - - NNW 20 24 11 13 999.9 999.4 4.0
26/06:00am 22.3 - - - - N 20 24 11 13 999.8 999.3 3.2
26/05:30am 22.4 24.1 22.4 100 0.0 N 17 26 9 14 999.7 999.2 2.4
26/05:00am 22.3 24.7 22.3 100 0.0 NNW 13 17 7 9 999.5 999.0 2.4
26/04:30am 22.4 25.3 21.7 96 0.5 WNW 9 13 5 7 999.2 998.7 2.4
26/04:00am 22.4 26.2 21.6 95 0.5 NW 4 13 2 7 998.6 998.1 2.0
26/03:30am 22.2 26.1 21.9 98 0.2 NW 4 7 2 4 999.7 999.2 1.0
26/03:00am 22.4 24.6 21.2 93 0.8 NNW 11 15 6 8 1000.4 999.9 0.4
26/02:30am 23.1 26.7 20.6 86 1.6 SW 2 6 1 3 999.5 999.0 0.2
26/02:00am 23.3 23.3 19.0 77 2.8 SSW 17 24 9 13 999.5 999.0 0.0
26/01:30am 24.7 22.8 17.7 65 4.4 SSW 24 30 13 16 999.9 999.4 0.0
26/01:00am 25.1 21.5 17.3 62 4.9 SW 32 46 17 25 1000.1 999.6 0.0
26/12:30am 25.6 20.6 17.0 59 5.4 SW 39 52 21 28 1001.2 1000.7 0.0
26/12:00am 26.2 20.1 16.2 54 6.2 WSW 43 57 23 31 1001.0 1000.5 0.0
 
Date/Time
EDT
Temp
°C
App
Temp
°C
Dew
Point
°C
Rel
Hum
%
Delta-T
°C
Wind Press
QNH
hPa
Press
MSL
hPa
Rain since
9am
mm
Dir  Spd
km/h
Gust
km/h
Spd
kts
Gust
kts
25/11:46pm 27.3 20.6 15.0 47 7.5 WSW 44 61 24 33 1000.7 1000.2 0.0
25/11:30pm 27.9 21.2 14.5 44 8.1 WSW 43 59 23 32 1000.0 999.5 0.0
25/11:06pm 29.5 23.1 13.3 37 9.7 WSW 39 57 21 31 999.2 998.7 0.0
25/11:00pm 30.1 23.6 13.0 35 10.2 WSW 39 50 21 27 999.0 998.5 0.0
25/10:49pm 32.2 25.7 10.3 26 12.6 W 35 50 19 27 998.6 998.1 0.0
25/10:43pm 33.6 28.1 7.6 20 14.4 NNW 26 46 14 25 998.4 997.9 0.0
25/10:30pm 35.1 28.8 -5.8 7 18.5 N 19 26 10 14 997.3 996.8 0.0
25/10:00pm 35.3 29.0 -5.7 7 18.7 N 19 24 10 13 997.4 996.9 0.0
25/09:30pm 35.4 29.7 -3.8 8 18.3 N 17 24 9 13 997.4 996.9 0.0
25/09:00pm 35.9 29.8 -3.5 8 18.7 N 19 24 10 13 997.3 996.8 0.0
25/08:30pm 36.4 30.0 -1.5 9 18.5 N 22 35 12 19 997.3 996.8 0.0
25/08:00pm 37.1 30.8 -1.0 9 19.0 N 22 35 12 19 997.1 996.6 0.0
25/07:36pm 37.6 29.5 -0.6 9 19.1 N 32 50 17 27 997.1 996.6 0.0
25/07:30pm 37.7 29.4 -0.6 9 19.1 N 33 50 18 27 997.1 996.6 0.0
25/07:00pm 39.2 31.3 2.0 10 19.6 N 33 44 18 24 997.0 996.5 0.0
25/06:49pm 38.8 32.0 3.1 11 19.0 N 28 46 15 25 996.9 996.4 0.0
25/06:30pm 38.7 30.8 4.2 12 18.7 NNW 35 50 19 27 997.0 996.5 0.0
25/06:00pm 39.0 31.5 4.4 12 18.9 NNW 33 52 18 28 997.3 996.8 0.0
25/05:35pm 39.3 32.4 4.7 12 18.9 N 30 48 16 26 997.5 997.0 0.0
25/05:30pm 39.0 32.1 4.4 12 18.8 N 30 43 16 23 997.5 997.0 0.0
25/05:14pm 39.0 32.1 4.4 12 18.8 N 30 50 16 27 997.6 997.1 0.0
25/05:00pm 39.3 32.0 4.7 12 19.0 NNW 32 43 17 23 998.0 997.5 0.0
25/04:46pm 39.6 32.0 3.7 11 19.4 N 33 56 18 30 998.1 997.6 0.0
25/04:30pm 39.0 31.5 3.2 11 19.1 N 32 46 17 25 998.2 997.7 0.0
25/04:00pm 40.9 32.8 3.3 10 20.4 NNW 35 54 19 29 999.0 998.5 0.0
25/03:33pm 40.8 34.0 3.2 10 20.2 NNW 28 46 15 25 999.4 998.9 0.0
25/03:30pm 40.6 33.4 3.1 10 20.1 NNW 30 46 16 25 999.5 999.0 0.0

Other formats

Comma delimited format used in spreadsheet applications
http://www.bom.gov.au/fwo/IDN60801/IDN60801.95869.axf

JavaScript Object Notation format (JSON) in row-major order
http://www.bom.gov.au/fwo/IDN60801/IDN60801.95869.json

Data quality

Most of these data are generated automatically and are frequently updated. Quality checks on data are not normally performed. It is possible for incorrect values to appear. Refer to information at About Latest Weather Observations and please check the disclaimer before using these data.